Terminal Aerodrome Forecast
Issued by NWS

Current Version | Previous Version | Graphics & Text | Print | Product List | Glossary On
Versions: 1 2 3 4 5 6 7 8 9 10 11 12 13 14 15 16 17 18 19 20 21 22 23
984
FTUS41 KILN 071738
TAFLCK
TAF
KLCK 071738Z 0718/0818 21012KT P6SM SCT150
     FM072300 20007KT P6SM BKN150
     FM080500 20007KT P6SM VCSH SCT025 OVC035
     FM080700 22005KT P6SM SCT025 OVC035
      TEMPO 0809/0812 BKN025
     FM081600 26008KT P6SM FEW025 SCT100=

USA.gov is the U.S. government's official web portal to all federal, state and local government web resources and services.